sensor_id;sensor_type;location;lat;lon;timestamp;pressure;altitude;pressure_sealevel;temperature;humidity
68137;BME280;54939;50.826;9.030;2023-02-22T00:00:20;98666.94;;;10.44;72.31
68137;BME280;54939;50.826;9.030;2023-02-22T00:01:00;98672.25;;;10.44;72.43
68137;BME280;54939;50.826;9.030;2023-02-22T00:01:36;98677.59;;;10.44;72.32
68137;BME280;54939;50.826;9.030;2023-02-22T00:02:16;98670.63;;;10.43;72.60
68137;BME280;54939;50.826;9.030;2023-02-22T00:02:56;98675.97;;;10.43;72.31
68137;BME280;54939;50.826;9.030;2023-02-22T00:03:29;98673.28;;;10.43;72.28
68137;BME280;54939;50.826;9.030;2023-02-22T00:04:02;98668.78;;;10.44;72.24
68137;BME280;54939;50.826;9.030;2023-02-22T00:04:32;98671.47;;;10.44;72.41
68137;BME280;54939;50.826;9.030;2023-02-22T00:05:04;98677.78;;;10.43;72.37
68137;BME280;54939;50.826;9.030;2023-02-22T00:05:34;98673.28;;;10.43;72.35
68137;BME280;54939;50.826;9.030;2023-02-22T00:06:05;98676.78;;;10.44;72.25
68137;BME280;54939;50.826;9.030;2023-02-22T00:06:35;98675.97;;;10.43;72.28
68137;BME280;54939;50.826;9.030;2023-02-22T00:07:05;98673.28;;;10.43;72.34
68137;BME280;54939;50.826;9.030;2023-02-22T00:07:36;98668.94;;;10.42;72.29
68137;BME280;54939;50.826;9.030;2023-02-22T00:08:06;98672.44;;;10.43;72.20
68137;BME280;54939;50.826;9.030;2023-02-22T00:08:40;98668.94;;;10.42;72.33
68137;BME280;54939;50.826;9.030;2023-02-22T00:09:10;98668.94;;;10.42;72.45
68137;BME280;54939;50.826;9.030;2023-02-22T00:09:40;98670.63;;;10.43;72.56
68137;BME280;54939;50.826;9.030;2023-02-22T00:10:11;98667.94;;;10.43;72.35
68137;BME280;54939;50.826;9.030;2023-02-22T00:10:42;98668.78;;;10.44;72.58
68137;BME280;54939;50.826;9.030;2023-02-22T00:11:13;98666.13;;;10.44;72.24
68137;BME280;54939;50.826;9.030;2023-02-22T00:11:47;98666.28;;;10.42;72.18
68137;BME280;54939;50.826;9.030;2023-02-22T00:12:17;98667.94;;;10.43;72.47
68137;BME280;54939;50.826;9.030;2023-02-22T00:12:50;98668.94;;;10.42;72.33
68137;BME280;54939;50.826;9.030;2023-02-22T00:13:21;98668.78;;;10.44;72.36
68137;BME280;54939;50.826;9.030;2023-02-22T00:13:51;98669.78;;;10.43;72.12
68137;BME280;54939;50.826;9.030;2023-02-22T00:14:25;98667.09;;;10.43;72.33
68137;BME280;54939;50.826;9.030;2023-02-22T00:14:56;98667.94;;;10.43;72.31
68137;BME280;54939;50.826;9.030;2023-02-22T00:15:26;98662.63;;;10.43;72.29
68137;BME280;54939;50.826;9.030;2023-02-22T00:15:57;98667.94;;;10.43;72.31
68137;BME280;54939;50.826;9.030;2023-02-22T00:16:27;98660.94;;;10.42;72.41
68137;BME280;54939;50.826;9.030;2023-02-22T00:16:59;98664.44;;;10.43;72.39
68137;BME280;54939;50.826;9.030;2023-02-22T00:17:29;98665.28;;;10.43;72.35
68137;BME280;54939;50.826;9.030;2023-02-22T00:18:00;98667.09;;;10.43;72.39
68137;BME280;54939;50.826;9.030;2023-02-22T00:18:30;98664.44;;;10.43;72.43
68137;BME280;54939;50.826;9.030;2023-02-22T00:19:00;98660.78;;;10.44;72.22
68137;BME280;54939;50.826;9.030;2023-02-22T00:19:30;98667.09;;;10.43;72.29
68137;BME280;54939;50.826;9.030;2023-02-22T00:20:01;98664.44;;;10.43;72.37
68137;BME280;54939;50.826;9.030;2023-02-22T00:20:34;98659.94;;;10.43;72.40
68137;BME280;54939;50.826;9.030;2023-02-22T00:21:07;98667.09;;;10.43;72.41
68137;BME280;54939;50.826;9.030;2023-02-22T00:21:40;98660.94;;;10.42;72.51
68137;BME280;54939;50.826;9.030;2023-02-22T00:22:10;98660.94;;;10.42;72.38
68137;BME280;54939;50.826;9.030;2023-02-22T00:22:41;98657.41;;;10.42;72.21
68137;BME280;54939;50.826;9.030;2023-02-22T00:23:14;98653.75;;;10.43;72.25
68137;BME280;54939;50.826;9.030;2023-02-22T00:23:45;98659.09;;;10.43;72.34
68137;BME280;54939;50.826;9.030;2023-02-22T00:24:16;98662.75;;;10.42;72.43
68137;BME280;54939;50.826;9.030;2023-02-22T00:24:51;98654.59;;;10.43;72.53
68137;BME280;54939;50.826;9.030;2023-02-22T00:25:22;98660.94;;;10.42;72.35
68137;BME280;54939;50.826;9.030;2023-02-22T00:25:55;98658.41;;;10.41;72.14
68137;BME280;54939;50.826;9.030;2023-02-22T00:26:26;98655.75;;;10.41;72.39
68137;BME280;54939;50.826;9.030;2023-02-22T00:26:56;98657.41;;;10.42;72.33
68137;BME280;54939;50.826;9.030;2023-02-22T00:27:26;98657.41;;;10.42;72.39
68137;BME280;54939;50.826;9.030;2023-02-22T00:27:56;98662.75;;;10.42;72.33
68137;BME280;54939;50.826;9.030;2023-02-22T00:28:27;98653.91;;;10.41;72.46
68137;BME280;54939;50.826;9.030;2023-02-22T00:28:57;98652.94;;;10.42;72.28
68137;BME280;54939;50.826;9.030;2023-02-22T00:29:27;98657.41;;;10.42;72.33
68137;BME280;54939;50.826;9.030;2023-02-22T00:29:58;98650.41;;;10.41;72.43
68137;BME280;54939;50.826;9.030;2023-02-22T00:30:28;98657.41;;;10.42;72.36
68137;BME280;54939;50.826;9.030;2023-02-22T00:31:00;98653.06;;;10.41;72.45
68137;BME280;54939;50.826;9.030;2023-02-22T00:31:35;98657.41;;;10.42;72.47
68137;BME280;54939;50.826;9.030;2023-02-22T00:32:05;98655.59;;;10.42;72.40
68137;BME280;54939;50.826;9.030;2023-02-22T00:32:36;98660.94;;;10.42;72.34
68137;BME280;54939;50.826;9.030;2023-02-22T00:33:06;98656.44;;;10.43;72.35
68137;BME280;54939;50.826;9.030;2023-02-22T00:33:37;98651.25;;;10.41;72.42
68137;BME280;54939;50.826;9.030;2023-02-22T00:34:07;98650.25;;;10.42;72.47
68137;BME280;54939;50.826;9.030;2023-02-22T00:34:37;98657.41;;;10.42;72.33
68137;BME280;54939;50.826;9.030;2023-02-22T00:35:07;98658.25;;;10.42;72.34
68137;BME280;54939;50.826;9.030;2023-02-22T00:35:37;98656.59;;;10.41;72.36
68137;BME280;54939;50.826;9.030;2023-02-22T00:36:09;98656.59;;;10.41;72.27
68137;BME280;54939;50.826;9.030;2023-02-22T00:36:43;98665.44;;;10.42;72.42
68137;BME280;54939;50.826;9.030;2023-02-22T00:37:14;98669.09;;;10.41;72.55
68137;BME280;54939;50.826;9.030;2023-02-22T00:37:47;98662.75;;;10.42;72.38
68137;BME280;54939;50.826;9.030;2023-02-22T00:38:18;98669.94;;;10.41;72.12
68137;BME280;54939;50.826;9.030;2023-02-22T00:38:48;98669.78;;;10.43;72.58
68137;BME280;54939;50.826;9.030;2023-02-22T00:39:18;98665.44;;;10.42;72.26
68137;BME280;54939;50.826;9.030;2023-02-22T00:39:49;98668.94;;;10.42;72.42
68137;BME280;54939;50.826;9.030;2023-02-22T00:40:21;98662.75;;;10.42;72.26
68137;BME280;54939;50.826;9.030;2023-02-22T00:40:52;98668.09;;;10.42;72.30
68137;BME280;54939;50.826;9.030;2023-02-22T00:41:22;98664.44;;;10.43;72.30
68137;BME280;54939;50.826;9.030;2023-02-22T00:41:52;98662.75;;;10.42;72.29
68137;BME280;54939;50.826;9.030;2023-02-22T00:42:22;98660.94;;;10.42;72.36
68137;BME280;54939;50.826;9.030;2023-02-22T00:42:53;98659.09;;;10.43;72.34
68137;BME280;54939;50.826;9.030;2023-02-22T00:43:23;98665.44;;;10.42;72.37
68137;BME280;54939;50.826;9.030;2023-02-22T00:43:54;98662.75;;;10.42;72.31
68137;BME280;54939;50.826;9.030;2023-02-22T00:44:24;98663.59;;;10.42;72.20
68137;BME280;54939;50.826;9.030;2023-02-22T00:44:54;98656.59;;;10.41;72.37
68137;BME280;54939;50.826;9.030;2023-02-22T00:45:25;98660.94;;;10.42;72.30
68137;BME280;54939;50.826;9.030;2023-02-22T00:45:55;98655.59;;;10.42;72.19
68137;BME280;54939;50.826;9.030;2023-02-22T00:46:26;98658.25;;;10.42;72.29
68137;BME280;54939;50.826;9.030;2023-02-22T00:46:56;98654.75;;;10.42;72.20
68137;BME280;54939;50.826;9.030;2023-02-22T00:47:27;98656.44;;;10.43;72.24
68137;BME280;54939;50.826;9.030;2023-02-22T00:47:57;98653.91;;;10.41;72.46
68137;BME280;54939;50.826;9.030;2023-02-22T00:48:27;98655.75;;;10.41;72.50
68137;BME280;54939;50.826;9.030;2023-02-22T00:48:58;98649.56;;;10.40;72.38
68137;BME280;54939;50.826;9.030;2023-02-22T00:49:28;98652.22;;;10.40;72.26
68137;BME280;54939;50.826;9.030;2023-02-22T00:49:58;98657.56;;;10.40;72.09
68137;BME280;54939;50.826;9.030;2023-02-22T00:50:29;98647.72;;;10.41;72.38
68137;BME280;54939;50.826;9.030;2023-02-22T00:51:00;98655.75;;;10.41;72.19
68137;BME280;54939;50.826;9.030;2023-02-22T00:51:30;98657.56;;;10.40;72.42
68137;BME280;54939;50.826;9.030;2023-02-22T00:52:00;98654.75;;;10.42;72.37
68137;BME280;54939;50.826;9.030;2023-02-22T00:52:30;98658.41;;;10.41;72.48
68137;BME280;54939;50.826;9.030;2023-02-22T00:53:01;98658.41;;;10.41;72.39
68137;BME280;54939;50.826;9.030;2023-02-22T00:53:32;98656.59;;;10.41;72.25
68137;BME280;54939;50.826;9.030;2023-02-22T00:54:03;98658.41;;;10.41;72.32
68137;BME280;54939;50.826;9.030;2023-02-22T00:54:34;98659.25;;;10.41;72.30
68137;BME280;54939;50.826;9.030;2023-02-22T00:55:05;98654.91;;;10.40;72.31
68137;BME280;54939;50.826;9.030;2023-02-22T00:55:36;98656.59;;;10.41;72.23
68137;BME280;54939;50.826;9.030;2023-02-22T00:56:06;98651.25;;;10.41;72.32
68137;BME280;54939;50.826;9.030;2023-02-22T00:56:36;98653.91;;;10.41;72.51
68137;BME280;54939;50.826;9.030;2023-02-22T00:57:06;98654.91;;;10.40;72.47
68137;BME280;54939;50.826;9.030;2023-02-22T00:57:37;98656.59;;;10.41;72.00
68137;BME280;54939;50.826;9.030;2023-02-22T00:58:07;98658.41;;;10.41;72.33
68137;BME280;54939;50.826;9.030;2023-02-22T00:58:37;98651.25;;;10.41;72.00
68137;BME280;54939;50.826;9.030;2023-02-22T00:59:07;98656.59;;;10.41;72.26
68137;BME280;54939;50.826;9.030;2023-02-22T00:59:37;98652.09;;;10.42;72.31
68137;BME280;54939;50.826;9.030;2023-02-22T01:00:08;98647.72;;;10.41;72.29
68137;BME280;54939;50.826;9.030;2023-02-22T01:00:42;98646.06;;;10.40;72.26
68137;BME280;54939;50.826;9.030;2023-02-22T01:01:12;98654.91;;;10.40;72.44
68137;BME280;54939;50.826;9.030;2023-02-22T01:01:42;98650.56;;;10.39;72.28
68137;BME280;54939;50.826;9.030;2023-02-22T01:02:12;98646.91;;;10.40;72.23
68137;BME280;54939;50.826;9.030;2023-02-22T01:02:43;98646.91;;;10.40;72.49
68137;BME280;54939;50.826;9.030;2023-02-22T01:03:13;98650.56;;;10.39;72.45
68137;BME280;54939;50.826;9.030;2023-02-22T01:03:44;98654.06;;;10.40;72.34
68137;BME280;54939;50.826;9.030;2023-02-22T01:04:14;98648.72;;;10.40;72.43
68137;BME280;54939;50.826;9.030;2023-02-22T01:04:44;98645.22;;;10.39;72.41
68137;BME280;54939;50.826;9.030;2023-02-22T01:05:15;98647.88;;;10.39;72.53
68137;BME280;54939;50.826;9.030;2023-02-22T01:05:45;98649.56;;;10.40;72.26
68137;BME280;54939;50.826;9.030;2023-02-22T01:06:16;98647.88;;;10.39;72.23
68137;BME280;54939;50.826;9.030;2023-02-22T01:06:46;98648.72;;;10.40;72.35
68137;BME280;54939;50.826;9.030;2023-02-22T01:07:16;98648.72;;;10.40;72.28
68137;BME280;54939;50.826;9.030;2023-02-22T01:07:47;98646.06;;;10.40;72.29
68137;BME280;54939;50.826;9.030;2023-02-22T01:08:18;98642.53;;;10.39;72.27
68137;BME280;54939;50.826;9.030;2023-02-22T01:08:48;98645.22;;;10.39;72.27
68137;BME280;54939;50.826;9.030;2023-02-22T01:09:19;98656.72;;;10.40;72.28
68137;BME280;54939;50.826;9.030;2023-02-22T01:09:49;98649.56;;;10.40;72.10
68137;BME280;54939;50.826;9.030;2023-02-22T01:10:19;98644.38;;;10.39;72.13
68137;BME280;54939;50.826;9.030;2023-02-22T01:10:50;98638.19;;;10.38;72.38
68137;BME280;54939;50.826;9.030;2023-02-22T01:11:21;98648.72;;;10.40;72.41
68137;BME280;54939;50.826;9.030;2023-02-22T01:11:52;98648.72;;;10.40;72.25
68137;BME280;54939;50.826;9.030;2023-02-22T01:12:24;98650.69;;;10.38;72.28
68137;BME280;54939;50.826;9.030;2023-02-22T01:12:54;98647.03;;;10.39;72.11
68137;BME280;54939;50.826;9.030;2023-02-22T01:13:24;98641.69;;;10.39;72.12
68137;BME280;54939;50.826;9.030;2023-02-22T01:13:55;98647.03;;;10.39;72.36
68137;BME280;54939;50.826;9.030;2023-02-22T01:14:26;98641.69;;;10.39;72.51
68137;BME280;54939;50.826;9.030;2023-02-22T01:14:57;98647.03;;;10.39;72.33
68137;BME280;54939;50.826;9.030;2023-02-22T01:15:28;98640.88;;;10.38;72.23
68137;BME280;54939;50.826;9.030;2023-02-22T01:15:59;98647.03;;;10.39;72.11
68137;BME280;54939;50.826;9.030;2023-02-22T01:16:30;98642.53;;;10.39;72.25
68137;BME280;54939;50.826;9.030;2023-02-22T01:17:00;98641.56;;;10.40;72.43
68137;BME280;54939;50.826;9.030;2023-02-22T01:17:30;98644.38;;;10.39;72.29
68137;BME280;54939;50.826;9.030;2023-02-22T01:18:00;98641.69;;;10.39;72.36
68137;BME280;54939;50.826;9.030;2023-02-22T01:18:30;98642.53;;;10.39;72.31
68137;BME280;54939;50.826;9.030;2023-02-22T01:19:00;98642.53;;;10.39;72.20
68137;BME280;54939;50.826;9.030;2023-02-22T01:19:31;98640.03;;;10.38;72.09
68137;BME280;54939;50.826;9.030;2023-02-22T01:20:02;98642.53;;;10.39;72.07
68137;BME280;54939;50.826;9.030;2023-02-22T01:20:36;98642.69;;;10.38;72.21
68137;BME280;54939;50.826;9.030;2023-02-22T01:21:06;98640.88;;;10.38;72.51
68137;BME280;54939;50.826;9.030;2023-02-22T01:21:38;98640.88;;;10.38;72.36
68137;BME280;54939;50.826;9.030;2023-02-22T01:22:08;98640.03;;;10.38;72.25
68137;BME280;54939;50.826;9.030;2023-02-22T01:22:44;98642.69;;;10.38;72.46
68137;BME280;54939;50.826;9.030;2023-02-22T01:23:14;98634.69;;;10.38;72.09
68137;BME280;54939;50.826;9.030;2023-02-22T01:23:46;98640.03;;;10.38;72.13
68137;BME280;54939;50.826;9.030;2023-02-22T01:24:16;98642.69;;;10.38;72.31
68137;BME280;54939;50.826;9.030;2023-02-22T01:24:47;98637.34;;;10.38;72.41
68137;BME280;54939;50.826;9.030;2023-02-22T01:25:19;98634.69;;;10.38;72.44
68137;BME280;54939;50.826;9.030;2023-02-22T01:25:49;98640.03;;;10.38;72.31
68137;BME280;54939;50.826;9.030;2023-02-22T01:26:19;98639.22;;;10.37;72.30
68137;BME280;54939;50.826;9.030;2023-02-22T01:26:50;98636.38;;;10.39;72.39
68137;BME280;54939;50.826;9.030;2023-02-22T01:27:21;98633.69;;;10.39;72.42
68137;BME280;54939;50.826;9.030;2023-02-22T01:27:51;98632.03;;;10.38;72.26
68137;BME280;54939;50.826;9.030;2023-02-22T01:28:22;98629.34;;;10.38;72.31
68137;BME280;54939;50.826;9.030;2023-02-22T01:28:52;98640.03;;;10.38;72.11
68137;BME280;54939;50.826;9.030;2023-02-22T01:29:22;98634.69;;;10.38;71.94
68137;BME280;54939;50.826;9.030;2023-02-22T01:29:53;98635.72;;;10.37;72.27
68137;BME280;54939;50.826;9.030;2023-02-22T01:30:24;98631.22;;;10.37;72.19
68137;BME280;54939;50.826;9.030;2023-02-22T01:30:55;98628.53;;;10.37;72.14
68137;BME280;54939;50.826;9.030;2023-02-22T01:31:25;98626.84;;;10.36;72.08
68137;BME280;54939;50.826;9.030;2023-02-22T01:31:55;98629.34;;;10.38;72.40
68137;BME280;54939;50.826;9.030;2023-02-22T01:32:25;98628.53;;;10.37;72.41
68137;BME280;54939;50.826;9.030;2023-02-22T01:32:55;98627.69;;;10.37;72.18
68137;BME280;54939;50.826;9.030;2023-02-22T01:33:26;98626.69;;;10.38;72.20
68137;BME280;54939;50.826;9.030;2023-02-22T01:33:56;98632.19;;;10.36;72.48
68137;BME280;54939;50.826;9.030;2023-02-22T01:34:26;98629.34;;;10.38;72.15
68137;BME280;54939;50.826;9.030;2023-02-22T01:34:57;98620.53;;;10.37;72.38
68137;BME280;54939;50.826;9.030;2023-02-22T01:35:29;98623.19;;;10.37;72.35
68137;BME280;54939;50.826;9.030;2023-02-22T01:35:59;98627.69;;;10.37;72.45
68137;BME280;54939;50.826;9.030;2023-02-22T01:36:29;98618.84;;;10.36;72.28
68137;BME280;54939;50.826;9.030;2023-02-22T01:37:00;98622.38;;;10.37;71.85
68137;BME280;54939;50.826;9.030;2023-02-22T01:37:30;98625.88;;;10.37;72.14
68137;BME280;54939;50.826;9.030;2023-02-22T01:38:01;98629.34;;;10.38;72.12
68137;BME280;54939;50.826;9.030;2023-02-22T01:38:31;98624.19;;;10.36;72.01
68137;BME280;54939;50.826;9.030;2023-02-22T01:39:03;98623.19;;;10.37;72.16
68137;BME280;54939;50.826;9.030;2023-02-22T01:39:33;98619.69;;;10.37;72.13
68137;BME280;54939;50.826;9.030;2023-02-22T01:40:03;98616.19;;;10.36;72.15
68137;BME280;54939;50.826;9.030;2023-02-22T01:40:37;98618.84;;;10.36;72.28
68137;BME280;54939;50.826;9.030;2023-02-22T01:41:07;98618.84;;;10.36;72.27
68137;BME280;54939;50.826;9.030;2023-02-22T01:41:37;98610.84;;;10.36;72.13
68137;BME280;54939;50.826;9.030;2023-02-22T01:42:10;98616.19;;;10.36;72.10
68137;BME280;54939;50.826;9.030;2023-02-22T01:42:40;98616.19;;;10.36;72.36
68137;BME280;54939;50.826;9.030;2023-02-22T01:43:19;98620.69;;;10.36;72.01
68137;BME280;54939;50.826;9.030;2023-02-22T01:43:49;98612.69;;;10.36;72.46
68137;BME280;54939;50.826;9.030;2023-02-22T01:44:23;98617.19;;;10.35;72.51
68137;BME280;54939;50.826;9.030;2023-02-22T01:45:49;98610.16;;;10.34;72.39
68137;BME280;54939;50.826;9.030;2023-02-22T01:46:23;98607.50;;;10.34;72.03
68137;BME280;54939;50.826;9.030;2023-02-22T01:46:54;98609.16;;;10.35;72.47
68137;BME280;54939;50.826;9.030;2023-02-22T01:47:24;98611.00;;;10.35;72.25
68137;BME280;54939;50.826;9.030;2023-02-22T01:47:55;98614.50;;;10.35;72.13
68137;BME280;54939;50.826;9.030;2023-02-22T01:48:28;98615.34;;;10.36;72.42
68137;BME280;54939;50.826;9.030;2023-02-22T01:49:02;98609.16;;;10.35;72.44
68137;BME280;54939;50.826;9.030;2023-02-22T01:49:37;98619.84;;;10.35;72.24
68137;BME280;54939;50.826;9.030;2023-02-22T01:50:07;98616.34;;;10.35;72.18
68137;BME280;54939;50.826;9.030;2023-02-22T01:50:43;98614.50;;;10.35;72.21
68137;BME280;54939;50.826;9.030;2023-02-22T01:51:45;98604.69;;;10.36;72.28
68137;BME280;54939;50.826;9.030;2023-02-22T01:52:18;98615.34;;;10.36;72.08
68137;BME280;54939;50.826;9.030;2023-02-22T01:52:49;98615.34;;;10.36;72.14
68137;BME280;54939;50.826;9.030;2023-02-22T01:53:21;98605.50;;;10.36;72.24
68137;BME280;54939;50.826;9.030;2023-02-22T01:54:27;98611.84;;;10.35;72.18
68137;BME280;54939;50.826;9.030;2023-02-22T01:54:58;98608.47;;;10.33;72.15
68137;BME280;54939;50.826;9.030;2023-02-22T01:55:29;98610.16;;;10.34;72.22
68137;BME280;54939;50.826;9.030;2023-02-22T01:56:00;98610.16;;;10.34;72.29
68137;BME280;54939;50.826;9.030;2023-02-22T01:56:32;98610.16;;;10.34;72.23
68137;BME280;54939;50.826;9.030;2023-02-22T01:57:07;98612.81;;;10.34;72.27
68137;BME280;54939;50.826;9.030;2023-02-22T01:57:41;98603.84;;;10.35;72.19
68137;BME280;54939;50.826;9.030;2023-02-22T01:58:11;98613.66;;;10.35;72.38
68137;BME280;54939;50.826;9.030;2023-02-22T01:58:43;98607.50;;;10.34;72.17
68137;BME280;54939;50.826;9.030;2023-02-22T01:59:15;98609.16;;;10.35;72.37
68137;BME280;54939;50.826;9.030;2023-02-22T01:59:47;98610.16;;;10.34;72.18
68137;BME280;54939;50.826;9.030;2023-02-22T02:00:18;98613.81;;;10.33;72.11
68137;BME280;54939;50.826;9.030;2023-02-22T02:00:50;98618.16;;;10.34;72.11
68137;BME280;54939;50.826;9.030;2023-02-22T02:01:20;98612.00;;;10.34;72.29
68137;BME280;54939;50.826;9.030;2023-02-22T02:01:52;98612.81;;;10.34;72.27
68137;BME280;54939;50.826;9.030;2023-02-22T02:02:22;98611.16;;;10.33;72.19
68137;BME280;54939;50.826;9.030;2023-02-22T02:02:55;98617.31;;;10.34;72.09
68137;BME280;54939;50.826;9.030;2023-02-22T02:03:29;98611.16;;;10.33;72.20
68137;BME280;54939;50.826;9.030;2023-02-22T02:04:01;98619.16;;;10.33;72.21
68137;BME280;54939;50.826;9.030;2023-02-22T02:04:33;98616.47;;;10.33;72.33
68137;BME280;54939;50.826;9.030;2023-02-22T02:05:03;98617.31;;;10.34;72.24
68137;BME280;54939;50.826;9.030;2023-02-22T02:05:37;98623.50;;;10.34;72.29
68137;BME280;54939;50.826;9.030;2023-02-22T02:06:09;98618.16;;;10.34;72.20
68137;BME280;54939;50.826;9.030;2023-02-22T02:06:41;98618.16;;;10.34;71.98
68137;BME280;54939;50.826;9.030;2023-02-22T02:07:12;98620.00;;;10.34;72.26
68137;BME280;54939;50.826;9.030;2023-02-22T02:07:43;98613.81;;;10.33;72.22
68137;BME280;54939;50.826;9.030;2023-02-22T02:10:19;98610.31;;;10.33;72.17
68137;BME280;54939;50.826;9.030;2023-02-22T02:10:50;98609.47;;;10.32;72.18
68137;BME280;54939;50.826;9.030;2023-02-22T02:11:21;98613.81;;;10.33;72.01
68137;BME280;54939;50.826;9.030;2023-02-22T02:11:53;98611.16;;;10.33;72.27
68137;BME280;54939;50.826;9.030;2023-02-22T02:12:24;98617.31;;;10.34;72.39
68137;BME280;54939;50.826;9.030;2023-02-22T02:12:55;98607.63;;;10.33;71.99
68137;BME280;54939;50.826;9.030;2023-02-22T02:13:26;98613.81;;;10.33;72.37
68137;BME280;54939;50.826;9.030;2023-02-22T02:13:57;98611.16;;;10.33;72.27
68137;BME280;54939;50.826;9.030;2023-02-22T02:14:28;98615.63;;;10.33;72.07
68137;BME280;54939;50.826;9.030;2023-02-22T02:15:47;98612.13;;;10.32;72.02
68137;BME280;54939;50.826;9.030;2023-02-22T02:16:18;98618.31;;;10.33;72.29
68137;BME280;54939;50.826;9.030;2023-02-22T02:16:51;98617.47;;;10.32;72.25
68137;BME280;54939;50.826;9.030;2023-02-22T02:17:22;98621.81;;;10.33;72.24
68137;BME280;54939;50.826;9.030;2023-02-22T02:17:53;98608.63;;;10.32;72.31
68137;BME280;54939;50.826;9.030;2023-02-22T02:18:23;98612.13;;;10.32;72.17
68137;BME280;54939;50.826;9.030;2023-02-22T02:18:55;98613.81;;;10.33;72.26
68137;BME280;54939;50.826;9.030;2023-02-22T02:20:09;98613.81;;;10.33;71.99
68137;BME280;54939;50.826;9.030;2023-02-22T02:23:30;98597.94;;;10.32;71.86
68137;BME280;54939;50.826;9.030;2023-02-22T02:24:31;98599.63;;;10.33;72.19
68137;BME280;54939;50.826;9.030;2023-02-22T02:26:54;98605.97;;;10.32;72.02
68137;BME280;54939;50.826;9.030;2023-02-22T02:27:34;98594.28;;;10.33;72.02
68137;BME280;54939;50.826;9.030;2023-02-22T02:28:25;98592.63;;;10.32;72.07
68137;BME280;54939;50.826;9.030;2023-02-22T02:33:11;98605.13;;;10.31;72.29
68137;BME280;54939;50.826;9.030;2023-02-22T02:33:49;98603.28;;;10.32;72.04
68137;BME280;54939;50.826;9.030;2023-02-22T02:34:25;98604.13;;;10.32;72.12
68137;BME280;54939;50.826;9.030;2023-02-22T02:35:11;98590.94;;;10.31;72.25
68137;BME280;54939;50.826;9.030;2023-02-22T02:35:53;98592.78;;;10.30;71.73
68137;BME280;54939;50.826;9.030;2023-02-22T02:36:59;98601.59;;;10.31;72.22
68137;BME280;54939;50.826;9.030;2023-02-22T02:41:07;98583.09;;;10.29;72.19
68137;BME280;54939;50.826;9.030;2023-02-22T02:41:41;98575.09;;;10.29;72.02
68137;BME280;54939;50.826;9.030;2023-02-22T02:42:13;98575.09;;;10.29;71.97
68137;BME280;54939;50.826;9.030;2023-02-22T02:43:37;98580.44;;;10.29;72.07
68137;BME280;54939;50.826;9.030;2023-02-22T02:44:10;98579.59;;;10.29;71.74
68137;BME280;54939;50.826;9.030;2023-02-22T02:44:51;98581.44;;;10.28;71.90
68137;BME280;54939;50.826;9.030;2023-02-22T02:45:27;98572.44;;;10.29;72.16
68137;BME280;54939;50.826;9.030;2023-02-22T02:46:11;98583.09;;;10.29;72.23
68137;BME280;54939;50.826;9.030;2023-02-22T02:47:21;98577.78;;;10.29;72.02
68137;BME280;54939;50.826;9.030;2023-02-22T02:47:54;98578.63;;;10.30;72.29
68137;BME280;54939;50.826;9.030;2023-02-22T02:48:27;98569.78;;;10.29;72.15
68137;BME280;54939;50.826;9.030;2023-02-22T02:49:01;98578.63;;;10.30;71.85
68137;BME280;54939;50.826;9.030;2023-02-22T02:49:44;98575.94;;;10.30;72.09
68137;BME280;54939;50.826;9.030;2023-02-22T02:50:17;98573.28;;;10.30;71.96
68137;BME280;54939;50.826;9.030;2023-02-22T02:50:49;98570.63;;;10.30;72.01
68137;BME280;54939;50.826;9.030;2023-02-22T02:51:19;98574.13;;;10.30;71.81
68137;BME280;54939;50.826;9.030;2023-02-22T02:51:51;98572.44;;;10.29;71.85
68137;BME280;54939;50.826;9.030;2023-02-22T02:52:23;98569.78;;;10.29;71.91
68137;BME280;54939;50.826;9.030;2023-02-22T02:52:56;98572.44;;;10.29;72.00
68137;BME280;54939;50.826;9.030;2023-02-22T02:53:38;98574.28;;;10.29;71.88
68137;BME280;54939;50.826;9.030;2023-02-22T02:54:09;98571.59;;;10.29;72.13
68137;BME280;54939;50.826;9.030;2023-02-22T02:54:40;98571.59;;;10.29;72.58
68137;BME280;54939;50.826;9.030;2023-02-22T02:55:11;98573.44;;;10.28;71.99
68137;BME280;54939;50.826;9.030;2023-02-22T02:55:42;98569.91;;;10.27;71.71
68137;BME280;54939;50.826;9.030;2023-02-22T02:56:12;98575.25;;;10.27;71.86
68137;BME280;54939;50.826;9.030;2023-02-22T02:56:42;98569.09;;;10.27;72.00
68137;BME280;54939;50.826;9.030;2023-02-22T02:57:12;98569.91;;;10.27;72.05
68137;BME280;54939;50.826;9.030;2023-02-22T02:57:43;98570.75;;;10.28;72.03
68137;BME280;54939;50.826;9.030;2023-02-22T02:58:21;98569.09;;;10.27;72.09
68137;BME280;54939;50.826;9.030;2023-02-22T02:58:52;98567.25;;;10.27;72.05
68137;BME280;54939;50.826;9.030;2023-02-22T02:59:24;98561.06;;;10.27;71.82
68137;BME280;54939;50.826;9.030;2023-02-22T02:59:55;98557.41;;;10.28;71.86
68137;BME280;54939;50.826;9.030;2023-02-22T03:00:26;98571.75;;;10.27;72.03
68137;BME280;54939;50.826;9.030;2023-02-22T03:01:00;98565.44;;;10.28;72.19
68137;BME280;54939;50.826;9.030;2023-02-22T03:01:44;98569.91;;;10.27;71.91
68137;BME280;54939;50.826;9.030;2023-02-22T03:02:22;98562.75;;;10.28;72.04
68137;BME280;54939;50.826;9.030;2023-02-22T03:03:10;98561.06;;;10.27;71.88
68137;BME280;54939;50.826;9.030;2023-02-22T03:03:56;98564.59;;;10.27;71.96
68137;BME280;54939;50.826;9.030;2023-02-22T03:05:11;98559.25;;;10.27;72.03
68137;BME280;54939;50.826;9.030;2023-02-22T03:07:20;98554.06;;;10.26;71.86
68137;BME280;54939;50.826;9.030;2023-02-22T03:08:13;98550.41;;;10.27;71.97
68137;BME280;54939;50.826;9.030;2023-02-22T03:08:56;98550.41;;;10.27;71.76
68137;BME280;54939;50.826;9.030;2023-02-22T03:11:20;98552.22;;;10.26;72.01
68137;BME280;54939;50.826;9.030;2023-02-22T03:12:26;98553.22;;;10.25;72.04
68137;BME280;54939;50.826;9.030;2023-02-22T03:13:02;98543.38;;;10.26;72.16
68137;BME280;54939;50.826;9.030;2023-02-22T03:13:39;98544.38;;;10.25;72.08
68137;BME280;54939;50.826;9.030;2023-02-22T03:15:05;98551.38;;;10.26;72.04
68137;BME280;54939;50.826;9.030;2023-02-22T03:16:42;98546.06;;;10.26;71.92